sensor_id;sensor_type;location;lat;lon;timestamp;temperature;humidity
52963;DHT22;38827;53.024;6.596;2022-07-01T00:00:34;15.60;81.50
52963;DHT22;38827;53.024;6.596;2022-07-01T00:03:00;15.60;81.50
52963;DHT22;38827;53.024;6.596;2022-07-01T00:05:28;15.60;81.60
52963;DHT22;38827;53.024;6.596;2022-07-01T00:08:14;15.70;81.50
52963;DHT22;38827;53.024;6.596;2022-07-01T00:10:41;15.60;81.50
52963;DHT22;38827;53.024;6.596;2022-07-01T00:13:06;15.70;81.30
52963;DHT22;38827;53.024;6.596;2022-07-01T00:21:14;15.70;81.50
52963;DHT22;38827;53.024;6.596;2022-07-01T00:23:41;15.70;81.40
52963;DHT22;38827;53.024;6.596;2022-07-01T00:26:07;15.70;81.50
52963;DHT22;38827;53.024;6.596;2022-07-01T00:28:35;15.70;81.50
52963;DHT22;38827;53.024;6.596;2022-07-01T00:31:00;15.70;81.60
52963;DHT22;38827;53.024;6.596;2022-07-01T00:38:31;15.80;81.70
52963;DHT22;38827;53.024;6.596;2022-07-01T00:43:27;15.80;81.80
52963;DHT22;38827;53.024;6.596;2022-07-01T00:51:10;15.80;81.90
52963;DHT22;38827;53.024;6.596;2022-07-01T00:53:40;15.80;81.70
52963;DHT22;38827;53.024;6.596;2022-07-01T00:56:15;15.80;81.70
52963;DHT22;38827;53.024;6.596;2022-07-01T00:58:42;15.80;81.70
52963;DHT22;38827;53.024;6.596;2022-07-01T01:01:17;15.80;81.90
52963;DHT22;38827;53.024;6.596;2022-07-01T01:03:49;15.80;81.80
52963;DHT22;38827;53.024;6.596;2022-07-01T01:06:16;15.80;81.80
52963;DHT22;38827;53.024;6.596;2022-07-01T01:08:42;15.80;81.70
52963;DHT22;38827;53.024;6.596;2022-07-01T01:11:08;15.70;81.40
52963;DHT22;38827;53.024;6.596;2022-07-01T01:13:34;15.70;81.30
52963;DHT22;38827;53.024;6.596;2022-07-01T01:16:00;15.70;81.10
52963;DHT22;38827;53.024;6.596;2022-07-01T01:21:36;15.60;80.60
52963;DHT22;38827;53.024;6.596;2022-07-01T01:24:11;15.50;80.80
52963;DHT22;38827;53.024;6.596;2022-07-01T01:29:58;15.50;80.70
52963;DHT22;38827;53.024;6.596;2022-07-01T01:36:05;15.50;80.90
52963;DHT22;38827;53.024;6.596;2022-07-01T01:38:36;15.40;81.00
52963;DHT22;38827;53.024;6.596;2022-07-01T01:44:26;15.50;80.90
52963;DHT22;38827;53.024;6.596;2022-07-01T01:56:31;15.50;80.80
52963;DHT22;38827;53.024;6.596;2022-07-01T01:59:17;15.50;80.80
52963;DHT22;38827;53.024;6.596;2022-07-01T02:01:43;15.50;80.70
52963;DHT22;38827;53.024;6.596;2022-07-01T02:04:10;15.50;80.90
52963;DHT22;38827;53.024;6.596;2022-07-01T02:06:36;15.50;80.90
52963;DHT22;38827;53.024;6.596;2022-07-01T02:09:02;15.50;81.10
52963;DHT22;38827;53.024;6.596;2022-07-01T02:11:39;15.50;81.20
52963;DHT22;38827;53.024;6.596;2022-07-01T02:14:22;15.50;81.10
52963;DHT22;38827;53.024;6.596;2022-07-01T02:17:00;15.50;81.00
52963;DHT22;38827;53.024;6.596;2022-07-01T02:19:44;15.40;81.20
52963;DHT22;38827;53.024;6.596;2022-07-01T02:25:51;15.40;80.90
52963;DHT22;38827;53.024;6.596;2022-07-01T02:28:17;15.30;81.00
52963;DHT22;38827;53.024;6.596;2022-07-01T02:34:01;15.30;80.80
52963;DHT22;38827;53.024;6.596;2022-07-01T02:36:27;15.30;80.70
52963;DHT22;38827;53.024;6.596;2022-07-01T02:39:05;15.30;80.80
52963;DHT22;38827;53.024;6.596;2022-07-01T02:41:49;15.30;80.70
52963;DHT22;38827;53.024;6.596;2022-07-01T02:45:04;15.30;80.80
52963;DHT22;38827;53.024;6.596;2022-07-01T02:47:37;15.30;80.80
52963;DHT22;38827;53.024;6.596;2022-07-01T02:50:04;15.30;80.90
52963;DHT22;38827;53.024;6.596;2022-07-01T02:52:43;15.30;81.00
52963;DHT22;38827;53.024;6.596;2022-07-01T02:55:11;15.30;81.10
52963;DHT22;38827;53.024;6.596;2022-07-01T02:57:38;15.30;81.10
52963;DHT22;38827;53.024;6.596;2022-07-01T03:00:05;15.30;81.20
52963;DHT22;38827;53.024;6.596;2022-07-01T03:02:43;15.30;81.30
52963;DHT22;38827;53.024;6.596;2022-07-01T03:05:41;15.30;81.40
52963;DHT22;38827;53.024;6.596;2022-07-01T03:08:37;15.30;81.30
52963;DHT22;38827;53.024;6.596;2022-07-01T03:11:03;15.30;81.50
52963;DHT22;38827;53.024;6.596;2022-07-01T03:13:29;15.20;81.70
52963;DHT22;38827;53.024;6.596;2022-07-01T03:15:55;15.30;81.80
52963;DHT22;38827;53.024;6.596;2022-07-01T03:18:39;15.30;81.60
52963;DHT22;38827;53.024;6.596;2022-07-01T03:21:10;15.30;81.60
52963;DHT22;38827;53.024;6.596;2022-07-01T03:23:36;15.20;81.80
52963;DHT22;38827;53.024;6.596;2022-07-01T03:26:08;15.20;81.70
52963;DHT22;38827;53.024;6.596;2022-07-01T03:28:40;15.20;81.80
52963;DHT22;38827;53.024;6.596;2022-07-01T03:31:24;15.20;81.80
52963;DHT22;38827;53.024;6.596;2022-07-01T03:33:51;15.20;81.70
52963;DHT22;38827;53.024;6.596;2022-07-01T03:36:17;15.20;81.90
52963;DHT22;38827;53.024;6.596;2022-07-01T03:38:42;15.20;81.80
52963;DHT22;38827;53.024;6.596;2022-07-01T03:41:08;15.20;81.90
52963;DHT22;38827;53.024;6.596;2022-07-01T03:43:34;15.20;81.80
52963;DHT22;38827;53.024;6.596;2022-07-01T03:45:59;15.30;81.70
52963;DHT22;38827;53.024;6.596;2022-07-01T03:48:34;15.30;81.60
52963;DHT22;38827;53.024;6.596;2022-07-01T03:51:00;15.30;81.50
52963;DHT22;38827;53.024;6.596;2022-07-01T03:53:26;15.30;81.50
52963;DHT22;38827;53.024;6.596;2022-07-01T03:56:10;15.30;81.40
52963;DHT22;38827;53.024;6.596;2022-07-01T03:58:36;15.30;81.50
52963;DHT22;38827;53.024;6.596;2022-07-01T04:01:01;15.30;81.50
52963;DHT22;38827;53.024;6.596;2022-07-01T04:03:27;15.30;81.50
52963;DHT22;38827;53.024;6.596;2022-07-01T04:05:53;15.30;81.60
52963;DHT22;38827;53.024;6.596;2022-07-01T04:08:21;15.30;81.60
52963;DHT22;38827;53.024;6.596;2022-07-01T04:10:48;15.40;81.70
52963;DHT22;38827;53.024;6.596;2022-07-01T04:13:15;15.40;81.60
52963;DHT22;38827;53.024;6.596;2022-07-01T04:15:40;15.40;81.60
52963;DHT22;38827;53.024;6.596;2022-07-01T04:18:06;15.40;81.70
52963;DHT22;38827;53.024;6.596;2022-07-01T04:20:47;15.40;81.70
52963;DHT22;38827;53.024;6.596;2022-07-01T04:23:42;15.40;81.70
52963;DHT22;38827;53.024;6.596;2022-07-01T04:26:26;15.40;81.70
52963;DHT22;38827;53.024;6.596;2022-07-01T04:28:55;15.50;81.30
52963;DHT22;38827;53.024;6.596;2022-07-01T04:31:39;15.50;81.50
52963;DHT22;38827;53.024;6.596;2022-07-01T04:34:08;15.50;81.50
52963;DHT22;38827;53.024;6.596;2022-07-01T04:36:35;15.50;81.50
52963;DHT22;38827;53.024;6.596;2022-07-01T04:39:20;15.50;81.30
52963;DHT22;38827;53.024;6.596;2022-07-01T04:41:58;15.50;81.20
52963;DHT22;38827;53.024;6.596;2022-07-01T04:44:24;15.50;81.10
52963;DHT22;38827;53.024;6.596;2022-07-01T04:47:27;15.50;81.10
52963;DHT22;38827;53.024;6.596;2022-07-01T04:50:19;15.50;80.90
52963;DHT22;38827;53.024;6.596;2022-07-01T04:52:44;15.50;81.00
52963;DHT22;38827;53.024;6.596;2022-07-01T04:55:18;15.50;81.10
52963;DHT22;38827;53.024;6.596;2022-07-01T04:57:59;15.50;81.00
52963;DHT22;38827;53.024;6.596;2022-07-01T05:00:27;15.50;80.80
52963;DHT22;38827;53.024;6.596;2022-07-01T05:02:53;15.50;81.10
52963;DHT22;38827;53.024;6.596;2022-07-01T05:05:19;15.50;80.90
52963;DHT22;38827;53.024;6.596;2022-07-01T05:08:19;15.50;81.00
52963;DHT22;38827;53.024;6.596;2022-07-01T05:10:44;15.60;80.70
52963;DHT22;38827;53.024;6.596;2022-07-01T05:13:28;15.50;80.90
52963;DHT22;38827;53.024;6.596;2022-07-01T05:15:57;15.60;80.60
52963;DHT22;38827;53.024;6.596;2022-07-01T05:23:29;15.60;80.80
52963;DHT22;38827;53.024;6.596;2022-07-01T05:26:05;15.60;80.70
52963;DHT22;38827;53.024;6.596;2022-07-01T05:31:49;15.60;80.10
52963;DHT22;38827;53.024;6.596;2022-07-01T05:34:15;15.60;80.40
52963;DHT22;38827;53.024;6.596;2022-07-01T05:36:41;15.60;80.50
52963;DHT22;38827;53.024;6.596;2022-07-01T05:39:07;15.70;80.30
52963;DHT22;38827;53.024;6.596;2022-07-01T05:42:00;15.70;80.10
52963;DHT22;38827;53.024;6.596;2022-07-01T05:44:25;15.70;80.00
52963;DHT22;38827;53.024;6.596;2022-07-01T05:46:51;15.70;80.10
52963;DHT22;38827;53.024;6.596;2022-07-01T05:49:17;15.80;79.70
52963;DHT22;38827;53.024;6.596;2022-07-01T05:51:42;15.80;79.90
52963;DHT22;38827;53.024;6.596;2022-07-01T05:54:11;15.80;79.90
52963;DHT22;38827;53.024;6.596;2022-07-01T05:56:38;15.80;79.70
52963;DHT22;38827;53.024;6.596;2022-07-01T05:59:03;15.80;79.70
52963;DHT22;38827;53.024;6.596;2022-07-01T06:01:29;15.90;79.50
52963;DHT22;38827;53.024;6.596;2022-07-01T06:03:55;15.90;79.30
52963;DHT22;38827;53.024;6.596;2022-07-01T06:06:21;15.90;79.20
52963;DHT22;38827;53.024;6.596;2022-07-01T06:09:02;16.00;79.00
52963;DHT22;38827;53.024;6.596;2022-07-01T06:11:46;16.00;78.70
52963;DHT22;38827;53.024;6.596;2022-07-01T06:14:12;16.10;78.50
52963;DHT22;38827;53.024;6.596;2022-07-01T06:16:54;16.10;78.70
52963;DHT22;38827;53.024;6.596;2022-07-01T06:19:20;16.20;78.00
52963;DHT22;38827;53.024;6.596;2022-07-01T06:21:46;16.20;78.20
52963;DHT22;38827;53.024;6.596;2022-07-01T06:24:12;16.20;78.00
52963;DHT22;38827;53.024;6.596;2022-07-01T06:27:03;16.30;78.10
52963;DHT22;38827;53.024;6.596;2022-07-01T06:29:32;16.40;77.30
52963;DHT22;38827;53.024;6.596;2022-07-01T06:31:59;16.50;77.60
52963;DHT22;38827;53.024;6.596;2022-07-01T06:34:44;16.60;77.00
52963;DHT22;38827;53.024;6.596;2022-07-01T06:37:44;16.60;76.60
52963;DHT22;38827;53.024;6.596;2022-07-01T06:44:34;16.70;76.30
52963;DHT22;38827;53.024;6.596;2022-07-01T06:59:48;16.70;75.50
52963;DHT22;38827;53.024;6.596;2022-07-01T07:02:19;16.70;75.30
52963;DHT22;38827;53.024;6.596;2022-07-01T07:04:49;16.70;75.30
52963;DHT22;38827;53.024;6.596;2022-07-01T07:07:14;16.70;75.30
52963;DHT22;38827;53.024;6.596;2022-07-01T07:09:40;16.70;75.50
52963;DHT22;38827;53.024;6.596;2022-07-01T07:12:15;16.60;75.10
52963;DHT22;38827;53.024;6.596;2022-07-01T07:15:21;16.70;75.20
52963;DHT22;38827;53.024;6.596;2022-07-01T07:20:57;16.70;75.30
52963;DHT22;38827;53.024;6.596;2022-07-01T07:23:45;16.70;75.30
52963;DHT22;38827;53.024;6.596;2022-07-01T07:26:11;16.80;75.00
52963;DHT22;38827;53.024;6.596;2022-07-01T07:28:37;16.80;75.10
52963;DHT22;38827;53.024;6.596;2022-07-01T07:31:03;16.90;74.80
52963;DHT22;38827;53.024;6.596;2022-07-01T07:33:28;17.00;74.80
52963;DHT22;38827;53.024;6.596;2022-07-01T07:41:52;16.90;74.40
52963;DHT22;38827;53.024;6.596;2022-07-01T07:44:17;17.00;74.10
52963;DHT22;38827;53.024;6.596;2022-07-01T07:47:19;17.00;73.70
52963;DHT22;38827;53.024;6.596;2022-07-01T07:49:51;17.10;73.50
52963;DHT22;38827;53.024;6.596;2022-07-01T07:52:17;17.10;73.70
52963;DHT22;38827;53.024;6.596;2022-07-01T07:54:43;17.20;73.40
52963;DHT22;38827;53.024;6.596;2022-07-01T07:57:11;17.30;73.10
52963;DHT22;38827;53.024;6.596;2022-07-01T07:59:46;17.40;72.60
52963;DHT22;38827;53.024;6.596;2022-07-01T08:06:05;17.80;71.40
52963;DHT22;38827;53.024;6.596;2022-07-01T08:08:33;17.90;71.30
52963;DHT22;38827;53.024;6.596;2022-07-01T08:10:59;18.10;71.40
52963;DHT22;38827;53.024;6.596;2022-07-01T08:13:30;18.20;71.10
52963;DHT22;38827;53.024;6.596;2022-07-01T08:18:48;18.30;69.90
52963;DHT22;38827;53.024;6.596;2022-07-01T08:21:51;18.40;69.50
52963;DHT22;38827;53.024;6.596;2022-07-01T08:24:48;18.50;68.00
52963;DHT22;38827;53.024;6.596;2022-07-01T08:28:17;18.40;68.80
52963;DHT22;38827;53.024;6.596;2022-07-01T08:31:14;18.60;69.30
52963;DHT22;38827;53.024;6.596;2022-07-01T08:34:05;18.90;68.00
52963;DHT22;38827;53.024;6.596;2022-07-01T08:36:55;19.20;66.60
52963;DHT22;38827;53.024;6.596;2022-07-01T08:43:09;19.80;64.30
52963;DHT22;38827;53.024;6.596;2022-07-01T08:52:38;20.30;63.70
52963;DHT22;38827;53.024;6.596;2022-07-01T08:55:04;20.60;62.70
52963;DHT22;38827;53.024;6.596;2022-07-01T08:57:30;20.70;61.70
52963;DHT22;38827;53.024;6.596;2022-07-01T09:02:56;20.70;61.00
52963;DHT22;38827;53.024;6.596;2022-07-01T09:05:23;20.70;61.20
52963;DHT22;38827;53.024;6.596;2022-07-01T09:11:24;20.80;59.90
52963;DHT22;38827;53.024;6.596;2022-07-01T09:14:53;20.80;60.10
52963;DHT22;38827;53.024;6.596;2022-07-01T09:20:48;20.90;59.40
52963;DHT22;38827;53.024;6.596;2022-07-01T09:23:17;20.90;59.70
52963;DHT22;38827;53.024;6.596;2022-07-01T09:25:48;20.90;59.30
52963;DHT22;38827;53.024;6.596;2022-07-01T09:53:17;20.90;57.50
52963;DHT22;38827;53.024;6.596;2022-07-01T09:55:44;21.00;56.30
52963;DHT22;38827;53.024;6.596;2022-07-01T09:58:52;21.00;56.90
52963;DHT22;38827;53.024;6.596;2022-07-01T10:05:15;21.00;57.40
52963;DHT22;38827;53.024;6.596;2022-07-01T10:08:23;21.10;56.50
52963;DHT22;38827;53.024;6.596;2022-07-01T10:11:01;21.40;54.90
52963;DHT22;38827;53.024;6.596;2022-07-01T10:13:31;21.60;55.40
52963;DHT22;38827;53.024;6.596;2022-07-01T10:15:59;21.90;55.10
52963;DHT22;38827;53.024;6.596;2022-07-01T10:18:28;22.20;54.70
52963;DHT22;38827;53.024;6.596;2022-07-01T10:20:55;22.50;54.00
52963;DHT22;38827;53.024;6.596;2022-07-01T10:23:39;22.70;53.60
52963;DHT22;38827;53.024;6.596;2022-07-01T10:26:05;22.50;52.80
52963;DHT22;38827;53.024;6.596;2022-07-01T10:29:05;22.20;53.30
52963;DHT22;38827;53.024;6.596;2022-07-01T10:31:37;21.90;53.40
52963;DHT22;38827;53.024;6.596;2022-07-01T10:34:04;22.00;53.40
52963;DHT22;38827;53.024;6.596;2022-07-01T10:36:32;22.30;52.20
52963;DHT22;38827;53.024;6.596;2022-07-01T10:41:36;22.70;51.30
52963;DHT22;38827;53.024;6.596;2022-07-01T10:44:30;22.80;51.10
52963;DHT22;38827;53.024;6.596;2022-07-01T10:47:19;23.00;51.00
52963;DHT22;38827;53.024;6.596;2022-07-01T10:56:06;23.80;49.20
52963;DHT22;38827;53.024;6.596;2022-07-01T11:02:15;23.80;47.30
52963;DHT22;38827;53.024;6.596;2022-07-01T11:04:41;23.40;49.30
52963;DHT22;38827;53.024;6.596;2022-07-01T11:07:37;23.30;49.20
52963;DHT22;38827;53.024;6.596;2022-07-01T11:10:42;23.30;49.00
52963;DHT22;38827;53.024;6.596;2022-07-01T11:13:08;23.50;48.30
52963;DHT22;38827;53.024;6.596;2022-07-01T11:15:38;23.70;47.80
52963;DHT22;38827;53.024;6.596;2022-07-01T11:18:04;23.90;47.20
52963;DHT22;38827;53.024;6.596;2022-07-01T11:20:31;24.00;46.80
52963;DHT22;38827;53.024;6.596;2022-07-01T11:22:58;24.10;46.60
52963;DHT22;38827;53.024;6.596;2022-07-01T11:25:30;24.10;46.50
52963;DHT22;38827;53.024;6.596;2022-07-01T11:27:56;24.10;46.70
52963;DHT22;38827;53.024;6.596;2022-07-01T11:30:23;24.10;46.20
52963;DHT22;38827;53.024;6.596;2022-07-01T11:32:54;24.20;46.40
52963;DHT22;38827;53.024;6.596;2022-07-01T11:35:27;24.30;46.50
52963;DHT22;38827;53.024;6.596;2022-07-01T11:38:21;24.50;45.80
52963;DHT22;38827;53.024;6.596;2022-07-01T11:41:07;24.50;45.80
52963;DHT22;38827;53.024;6.596;2022-07-01T11:43:36;24.30;45.70
52963;DHT22;38827;53.024;6.596;2022-07-01T11:46:04;24.20;46.80
52963;DHT22;38827;53.024;6.596;2022-07-01T11:51:09;23.40;48.70
52963;DHT22;38827;53.024;6.596;2022-07-01T11:53:36;23.10;49.20
52963;DHT22;38827;53.024;6.596;2022-07-01T11:56:02;22.70;50.20
52963;DHT22;38827;53.024;6.596;2022-07-01T11:58:49;22.30;50.80
52963;DHT22;38827;53.024;6.596;2022-07-01T12:01:29;22.10;51.00
52963;DHT22;38827;53.024;6.596;2022-07-01T12:03:58;22.00;51.90
52963;DHT22;38827;53.024;6.596;2022-07-01T12:06:25;22.30;52.10
52963;DHT22;38827;53.024;6.596;2022-07-01T12:08:52;22.60;50.70
52963;DHT22;38827;53.024;6.596;2022-07-01T12:11:19;23.00;49.50
52963;DHT22;38827;53.024;6.596;2022-07-01T12:13:51;23.40;48.10
52963;DHT22;38827;53.024;6.596;2022-07-01T12:16:17;23.70;46.60
52963;DHT22;38827;53.024;6.596;2022-07-01T12:19:00;24.00;46.10
52963;DHT22;38827;53.024;6.596;2022-07-01T12:21:28;24.30;45.20
52963;DHT22;38827;53.024;6.596;2022-07-01T12:24:10;24.50;44.20
52963;DHT22;38827;53.024;6.596;2022-07-01T12:29:16;24.70;42.30
52963;DHT22;38827;53.024;6.596;2022-07-01T12:31:43;24.80;42.60
52963;DHT22;38827;53.024;6.596;2022-07-01T12:34:09;24.90;42.50
52963;DHT22;38827;53.024;6.596;2022-07-01T12:36:35;24.80;42.30
52963;DHT22;38827;53.024;6.596;2022-07-01T12:39:07;24.70;42.20
52963;DHT22;38827;53.024;6.596;2022-07-01T12:41:35;24.60;42.20
52963;DHT22;38827;53.024;6.596;2022-07-01T12:44:22;24.50;42.40
52963;DHT22;38827;53.024;6.596;2022-07-01T12:46:48;24.70;42.90
52963;DHT22;38827;53.024;6.596;2022-07-01T12:49:24;24.90;41.70
52963;DHT22;38827;53.024;6.596;2022-07-01T12:51:52;25.00;41.40
52963;DHT22;38827;53.024;6.596;2022-07-01T12:54:33;25.00;43.00
52963;DHT22;38827;53.024;6.596;2022-07-01T12:56:59;25.10;42.20
52963;DHT22;38827;53.024;6.596;2022-07-01T12:59:26;25.20;42.20
52963;DHT22;38827;53.024;6.596;2022-07-01T13:01:51;25.20;42.40
52963;DHT22;38827;53.024;6.596;2022-07-01T13:04:25;25.30;41.10
52963;DHT22;38827;53.024;6.596;2022-07-01T13:06:51;25.20;39.80
52963;DHT22;38827;53.024;6.596;2022-07-01T13:09:16;25.20;40.20
52963;DHT22;38827;53.024;6.596;2022-07-01T13:11:42;25.20;40.00
52963;DHT22;38827;53.024;6.596;2022-07-01T13:14:08;25.20;39.80
52963;DHT22;38827;53.024;6.596;2022-07-01T13:16:33;25.10;40.00
52963;DHT22;38827;53.024;6.596;2022-07-01T13:18:59;25.00;40.40
52963;DHT22;38827;53.024;6.596;2022-07-01T13:21:25;24.80;40.50
52963;DHT22;38827;53.024;6.596;2022-07-01T13:23:50;24.60;40.60
52963;DHT22;38827;53.024;6.596;2022-07-01T13:26:19;24.50;41.00
52963;DHT22;38827;53.024;6.596;2022-07-01T13:28:49;24.40;41.40
52963;DHT22;38827;53.024;6.596;2022-07-01T13:31:14;24.30;40.80
52963;DHT22;38827;53.024;6.596;2022-07-01T13:33:40;24.30;40.90
52963;DHT22;38827;53.024;6.596;2022-07-01T13:36:08;24.30;40.80
52963;DHT22;38827;53.024;6.596;2022-07-01T13:38:36;24.40;41.90
52963;DHT22;38827;53.024;6.596;2022-07-01T13:41:02;24.60;41.70
52963;DHT22;38827;53.024;6.596;2022-07-01T13:43:28;24.70;41.70
52963;DHT22;38827;53.024;6.596;2022-07-01T13:45:57;24.80;41.60
52963;DHT22;38827;53.024;6.596;2022-07-01T13:48:23;24.80;41.80
52963;DHT22;38827;53.024;6.596;2022-07-01T13:50:48;24.90;42.30
52963;DHT22;38827;53.024;6.596;2022-07-01T13:53:14;25.00;42.40
52963;DHT22;38827;53.024;6.596;2022-07-01T13:55:41;24.90;42.20
52963;DHT22;38827;53.024;6.596;2022-07-01T13:58:07;24.70;42.30
52963;DHT22;38827;53.024;6.596;2022-07-01T14:00:33;24.40;42.40
52963;DHT22;38827;53.024;6.596;2022-07-01T14:03:08;24.20;42.80
52963;DHT22;38827;53.024;6.596;2022-07-01T14:05:36;24.10;42.70
52963;DHT22;38827;53.024;6.596;2022-07-01T14:08:02;24.00;43.40
52963;DHT22;38827;53.024;6.596;2022-07-01T14:10:29;23.90;42.60
52963;DHT22;38827;53.024;6.596;2022-07-01T14:12:55;23.70;42.80
52963;DHT22;38827;53.024;6.596;2022-07-01T14:15:21;23.60;43.10
52963;DHT22;38827;53.024;6.596;2022-07-01T14:17:56;23.50;43.70
52963;DHT22;38827;53.024;6.596;2022-07-01T14:20:21;23.30;42.90
52963;DHT22;38827;53.024;6.596;2022-07-01T14:22:47;23.10;43.30
52963;DHT22;38827;53.024;6.596;2022-07-01T14:25:13;23.10;43.10
52963;DHT22;38827;53.024;6.596;2022-07-01T14:27:38;23.20;43.40
52963;DHT22;38827;53.024;6.596;2022-07-01T14:30:05;23.40;43.10
52963;DHT22;38827;53.024;6.596;2022-07-01T14:32:34;23.50;43.70
52963;DHT22;38827;53.024;6.596;2022-07-01T14:35:01;23.60;43.80
52963;DHT22;38827;53.024;6.596;2022-07-01T14:37:28;23.70;43.80
52963;DHT22;38827;53.024;6.596;2022-07-01T14:39:53;23.80;43.30
52963;DHT22;38827;53.024;6.596;2022-07-01T14:42:26;23.70;43.60
52963;DHT22;38827;53.024;6.596;2022-07-01T14:44:54;23.50;43.60
52963;DHT22;38827;53.024;6.596;2022-07-01T14:47:20;23.30;43.70
52963;DHT22;38827;53.024;6.596;2022-07-01T14:49:49;23.10;44.00
52963;DHT22;38827;53.024;6.596;2022-07-01T14:52:17;23.00;44.40
52963;DHT22;38827;53.024;6.596;2022-07-01T14:54:43;22.90;44.40
52963;DHT22;38827;53.024;6.596;2022-07-01T14:57:09;22.80;45.30
52963;DHT22;38827;53.024;6.596;2022-07-01T14:59:35;22.90;44.40
52963;DHT22;38827;53.024;6.596;2022-07-01T15:02:01;22.90;44.70
52963;DHT22;38827;53.024;6.596;2022-07-01T15:04:30;23.00;44.70
52963;DHT22;38827;53.024;6.596;2022-07-01T15:06:56;23.00;44.40
52963;DHT22;38827;53.024;6.596;2022-07-01T15:09:21;23.20;44.80
52963;DHT22;38827;53.024;6.596;2022-07-01T15:11:51;23.30;44.20
52963;DHT22;38827;53.024;6.596;2022-07-01T15:14:18;23.50;44.00
52963;DHT22;38827;53.024;6.596;2022-07-01T15:16:44;23.60;44.30
52963;DHT22;38827;53.024;6.596;2022-07-01T15:19:10;23.80;44.00
52963;DHT22;38827;53.024;6.596;2022-07-01T15:21:39;23.90;44.00
52963;DHT22;38827;53.024;6.596;2022-07-01T15:24:05;23.90;43.80
52963;DHT22;38827;53.024;6.596;2022-07-01T15:26:31;23.90;43.80
52963;DHT22;38827;53.024;6.596;2022-07-01T15:28:56;23.70;43.70
52963;DHT22;38827;53.024;6.596;2022-07-01T15:31:22;23.60;43.40
52963;DHT22;38827;53.024;6.596;2022-07-01T15:33:48;23.40;42.40
52963;DHT22;38827;53.024;6.596;2022-07-01T15:36:14;23.30;41.90
52963;DHT22;38827;53.024;6.596;2022-07-01T15:38:40;23.20;42.00
52963;DHT22;38827;53.024;6.596;2022-07-01T15:41:06;23.00;42.90
52963;DHT22;38827;53.024;6.596;2022-07-01T15:43:32;23.00;43.20
52963;DHT22;38827;53.024;6.596;2022-07-01T15:45:59;22.90;43.00
52963;DHT22;38827;53.024;6.596;2022-07-01T15:48:25;22.80;43.20
52963;DHT22;38827;53.024;6.596;2022-07-01T15:50:51;22.70;43.60
52963;DHT22;38827;53.024;6.596;2022-07-01T15:53:18;22.70;44.20
52963;DHT22;38827;53.024;6.596;2022-07-01T15:55:45;22.70;44.30
52963;DHT22;38827;53.024;6.596;2022-07-01T15:58:14;22.60;44.60
52963;DHT22;38827;53.024;6.596;2022-07-01T16:00:41;22.60;45.00
52963;DHT22;38827;53.024;6.596;2022-07-01T16:03:07;22.60;45.20
52963;DHT22;38827;53.024;6.596;2022-07-01T16:05:33;22.70;44.70
52963;DHT22;38827;53.024;6.596;2022-07-01T16:08:01;22.60;44.60
52963;DHT22;38827;53.024;6.596;2022-07-01T16:10:46;22.50;45.20
52963;DHT22;38827;53.024;6.596;2022-07-01T16:13:13;22.40;45.20
52963;DHT22;38827;53.024;6.596;2022-07-01T16:15:49;22.30;45.90
52963;DHT22;38827;53.024;6.596;2022-07-01T16:18:17;22.20;45.20
52963;DHT22;38827;53.024;6.596;2022-07-01T16:20:48;22.10;44.30
52963;DHT22;38827;53.024;6.596;2022-07-01T16:23:19;21.90;44.20
52963;DHT22;38827;53.024;6.596;2022-07-01T16:25:46;21.90;44.90
52963;DHT22;38827;53.024;6.596;2022-07-01T16:28:14;21.80;45.00
52963;DHT22;38827;53.024;6.596;2022-07-01T16:30:41;21.80;45.10
52963;DHT22;38827;53.024;6.596;2022-07-01T16:33:07;21.90;45.30
52963;DHT22;38827;53.024;6.596;2022-07-01T16:35:48;22.00;44.30
52963;DHT22;38827;53.024;6.596;2022-07-01T16:38:27;22.10;43.90
52963;DHT22;38827;53.024;6.596;2022-07-01T16:41:16;22.10;44.20
52963;DHT22;38827;53.024;6.596;2022-07-01T16:43:53;22.00;44.80
52963;DHT22;38827;53.024;6.596;2022-07-01T16:46:21;22.00;45.20
52963;DHT22;38827;53.024;6.596;2022-07-01T16:48:51;21.90;45.20
52963;DHT22;38827;53.024;6.596;2022-07-01T16:51:18;21.80;45.20
52963;DHT22;38827;53.024;6.596;2022-07-01T16:53:47;21.60;45.50
52963;DHT22;38827;53.024;6.596;2022-07-01T16:56:23;21.50;45.60
52963;DHT22;38827;53.024;6.596;2022-07-01T16:59:00;21.40;45.70
52963;DHT22;38827;53.024;6.596;2022-07-01T17:01:31;21.30;45.90
52963;DHT22;38827;53.024;6.596;2022-07-01T17:03:57;21.30;45.70
52963;DHT22;38827;53.024;6.596;2022-07-01T17:06:27;21.30;46.10
52963;DHT22;38827;53.024;6.596;2022-07-01T17:09:04;21.40;46.70
52963;DHT22;38827;53.024;6.596;2022-07-01T17:11:38;21.50;47.10
52963;DHT22;38827;53.024;6.596;2022-07-01T17:14:04;21.60;47.30
52963;DHT22;38827;53.024;6.596;2022-07-01T17:16:30;21.70;46.90
52963;DHT22;38827;53.024;6.596;2022-07-01T17:19:07;21.70;46.90
52963;DHT22;38827;53.024;6.596;2022-07-01T17:22:00;21.70;46.30
52963;DHT22;38827;53.024;6.596;2022-07-01T17:24:27;21.60;46.60
52963;DHT22;38827;53.024;6.596;2022-07-01T17:27:14;21.60;46.50
52963;DHT22;38827;53.024;6.596;2022-07-01T17:32:38;21.30;47.10
52963;DHT22;38827;53.024;6.596;2022-07-01T17:35:16;21.10;47.40
52963;DHT22;38827;53.024;6.596;2022-07-01T17:37:46;21.00;47.60
52963;DHT22;38827;53.024;6.596;2022-07-01T17:43:31;20.70;48.30
52963;DHT22;38827;53.024;6.596;2022-07-01T17:46:14;20.50;48.80
52963;DHT22;38827;53.024;6.596;2022-07-01T17:48:53;20.40;49.20
52963;DHT22;38827;53.024;6.596;2022-07-01T17:51:20;20.30;49.60
52963;DHT22;38827;53.024;6.596;2022-07-01T17:53:47;20.30;49.80
52963;DHT22;38827;53.024;6.596;2022-07-01T17:56:13;20.20;50.20
52963;DHT22;38827;53.024;6.596;2022-07-01T17:58:40;20.10;50.60
52963;DHT22;38827;53.024;6.596;2022-07-01T18:01:07;20.00;50.90
52963;DHT22;38827;53.024;6.596;2022-07-01T18:03:33;20.10;50.70
52963;DHT22;38827;53.024;6.596;2022-07-01T18:06:04;20.10;51.00
52963;DHT22;38827;53.024;6.596;2022-07-01T18:08:32;20.20;50.90
52963;DHT22;38827;53.024;6.596;2022-07-01T18:11:03;20.30;51.10
52963;DHT22;38827;53.024;6.596;2022-07-01T18:16:20;20.30;51.10
52963;DHT22;38827;53.024;6.596;2022-07-01T18:19:03;20.30;50.60
52963;DHT22;38827;53.024;6.596;2022-07-01T18:21:32;20.30;49.80
52963;DHT22;38827;53.024;6.596;2022-07-01T18:24:02;20.20;49.60
52963;DHT22;38827;53.024;6.596;2022-07-01T18:26:31;20.20;49.10
52963;DHT22;38827;53.024;6.596;2022-07-01T18:28:58;20.10;49.10
52963;DHT22;38827;53.024;6.596;2022-07-01T18:31:32;20.10;49.20
52963;DHT22;38827;53.024;6.596;2022-07-01T18:37:05;20.00;48.80
52963;DHT22;38827;53.024;6.596;2022-07-01T18:39:32;20.00;48.70
52963;DHT22;38827;53.024;6.596;2022-07-01T18:41:58;19.90;48.60
52963;DHT22;38827;53.024;6.596;2022-07-01T18:44:23;19.80;48.90
52963;DHT22;38827;53.024;6.596;2022-07-01T18:46:52;19.80;49.30